createdAt,value
2018-09-03T04:00:56.310Z,1013.47
2018-09-03T04:01:56.178Z,1013.47
2018-09-03T04:03:48.853Z,1013.42
2018-09-03T04:04:48.753Z,1013.49
2018-09-03T04:06:41.451Z,1013.43
2018-09-03T04:07:41.334Z,1013.46
2018-09-03T04:09:34.022Z,1013.42
2018-09-03T04:10:33.913Z,1013.41
2018-09-03T04:12:26.609Z,1013.45
2018-09-03T04:13:26.490Z,1013.48
2018-09-03T04:15:19.196Z,1013.50
2018-09-03T04:16:19.065Z,1013.52
2018-09-03T04:18:11.746Z,1013.45
2018-09-03T04:19:11.646Z,1013.45
2018-09-03T04:21:04.334Z,1013.46
2018-09-03T04:22:04.209Z,1013.48
2018-09-03T04:23:56.893Z,1013.45
2018-09-03T04:24:56.780Z,1013.47
2018-09-03T04:26:49.483Z,1013.41
2018-09-03T04:27:49.359Z,1013.39
2018-09-03T04:29:42.039Z,1013.31
2018-09-03T04:30:41.936Z,1013.27
2018-09-03T04:32:34.628Z,1013.30
2018-09-03T04:33:34.512Z,1013.32
2018-09-03T04:35:27.205Z,1013.34
2018-09-03T04:36:27.097Z,1013.36
2018-09-03T04:38:19.795Z,1013.34
2018-09-03T04:39:19.668Z,1013.37
2018-09-03T04:41:12.346Z,1013.32
2018-09-03T04:42:12.245Z,1013.36
2018-09-03T04:44:04.933Z,1013.28
2018-09-03T04:45:04.817Z,1013.39
2018-09-03T04:46:57.500Z,1013.42
2018-09-03T04:47:57.396Z,1013.47
2018-09-03T04:49:50.085Z,1013.43
2018-09-03T04:50:49.967Z,1013.33
2018-09-03T04:52:42.659Z,1013.31
2018-09-03T04:53:42.536Z,1013.27
2018-09-03T04:55:35.212Z,1013.20
2018-09-03T04:56:35.107Z,1013.16
2018-09-03T04:58:27.817Z,1013.21
2018-09-03T04:59:27.694Z,1013.29
2018-09-03T05:01:20.373Z,1013.31
2018-09-03T05:02:20.274Z,1013.36
2018-09-03T05:04:12.967Z,1013.36
2018-09-03T05:05:12.887Z,1013.33
2018-09-03T05:07:05.514Z,1013.25
2018-09-03T05:08:05.413Z,1013.21
2018-09-03T05:09:58.107Z,1013.20
2018-09-03T05:10:57.989Z,1013.19
2018-09-03T05:12:50.656Z,1013.19
2018-09-03T05:13:50.556Z,1013.21
2018-09-03T05:15:43.241Z,1013.19
2018-09-03T05:16:43.126Z,1013.24
2018-09-03T05:18:35.814Z,1013.23
2018-09-03T05:19:35.697Z,1013.24
2018-09-03T05:21:28.866Z,1013.22
2018-09-03T05:22:28.765Z,1013.24
2018-09-03T05:24:21.452Z,1013.20
2018-09-03T05:25:21.332Z,1013.22
2018-09-03T05:27:14.014Z,1013.24
2018-09-03T05:28:13.912Z,1013.26
2018-09-03T05:30:06.603Z,1013.25
2018-09-03T05:31:06.501Z,1013.28
2018-09-03T05:32:59.173Z,1013.31
2018-09-03T05:33:59.066Z,1013.31
2018-09-03T05:35:51.768Z,1013.31
2018-09-03T05:36:51.639Z,1013.32
2018-09-03T05:38:44.320Z,1013.25
2018-09-03T05:39:44.216Z,1013.23
2018-09-03T05:41:36.908Z,1013.25
2018-09-03T05:42:36.793Z,1013.25
2018-09-03T05:44:29.465Z,1013.26
2018-09-03T05:45:29.364Z,1013.24
2018-09-03T05:47:22.059Z,1013.23
2018-09-03T05:48:21.934Z,1013.23
2018-09-03T05:50:14.684Z,1013.26
2018-09-03T05:51:14.519Z,1013.27
2018-09-03T05:53:07.209Z,1013.29
2018-09-03T05:54:07.092Z,1013.26
2018-09-03T05:55:59.778Z,1013.26
2018-09-03T05:56:59.670Z,1013.30
2018-09-03T05:58:52.369Z,1013.33
2018-09-03T05:59:52.250Z,1013.30
2018-09-03T06:01:44.932Z,1013.34
2018-09-03T06:02:44.822Z,1013.30
2018-09-03T06:04:37.519Z,1013.23
2018-09-03T06:05:37.397Z,1013.24
2018-09-03T06:07:30.100Z,1013.22
2018-09-03T06:08:29.978Z,1013.22
2018-09-03T06:10:22.665Z,1013.20
2018-09-03T06:11:22.551Z,1013.19
2018-09-03T06:13:15.244Z,1013.21
2018-09-03T06:14:15.126Z,1013.22
2018-09-03T06:16:07.802Z,1013.18
2018-09-03T06:17:07.694Z,1013.17
2018-09-03T06:19:00.393Z,1013.18
2018-09-03T06:20:00.273Z,1013.22
2018-09-03T06:21:52.949Z,1013.29
2018-09-03T06:22:52.845Z,1013.33
2018-09-03T06:24:45.544Z,1013.35
2018-09-03T06:25:45.418Z,1013.32
2018-09-03T06:27:38.096Z,1013.33
2018-09-03T06:28:37.998Z,1013.31
2018-09-03T06:30:30.693Z,1013.32
2018-09-03T06:31:30.571Z,1013.31
2018-09-03T06:33:23.272Z,1013.31
2018-09-03T06:34:23.143Z,1013.29
2018-09-03T06:36:15.829Z,1013.31
2018-09-03T06:37:15.759Z,1013.25
2018-09-03T06:39:08.438Z,1013.23
2018-09-03T06:40:08.298Z,1013.22
2018-09-03T06:42:00.980Z,1013.28
2018-09-03T06:43:00.873Z,1013.33
2018-09-03T06:44:53.570Z,1013.27
2018-09-03T06:45:53.485Z,1013.28
2018-09-03T06:47:46.137Z,1013.28
2018-09-03T06:48:46.029Z,1013.29
2018-09-03T06:50:38.736Z,1013.32
2018-09-03T06:51:38.597Z,1013.32
2018-09-03T06:53:31.288Z,1013.30
2018-09-03T06:54:31.176Z,1013.26
2018-09-03T06:56:23.945Z,1013.25
2018-09-03T06:57:23.792Z,1013.33
2018-09-03T06:59:16.465Z,1013.24
2018-09-03T07:00:16.364Z,1013.29
2018-09-03T07:02:09.102Z,1013.28
2018-09-03T07:03:08.943Z,1013.27
2018-09-03T07:05:01.643Z,1013.31
2018-09-03T07:06:01.512Z,1013.34
2018-09-03T07:07:54.194Z,1013.36
2018-09-03T07:08:54.086Z,1013.37
2018-09-03T07:10:46.795Z,1013.38
2018-09-03T07:11:46.673Z,1013.46
2018-09-03T07:13:39.357Z,1013.44
2018-09-03T07:14:39.256Z,1013.43
2018-09-03T07:16:31.955Z,1013.43
2018-09-03T07:17:31.834Z,1013.43
2018-09-03T07:19:24.509Z,1013.42
2018-09-03T07:20:24.403Z,1013.39
2018-09-03T07:22:17.111Z,1013.39
2018-09-03T07:23:16.988Z,1013.45
2018-09-03T07:25:09.667Z,1013.45
2018-09-03T07:26:09.565Z,1013.49
2018-09-03T07:28:02.271Z,1013.46
2018-09-03T07:29:02.140Z,1013.43
2018-09-03T07:30:54.817Z,1013.40
2018-09-03T07:31:54.721Z,1013.34
2018-09-03T07:33:47.420Z,1013.35
2018-09-03T07:34:47.297Z,1013.36
2018-09-03T07:36:39.974Z,1013.34
2018-09-03T07:37:39.867Z,1013.32
2018-09-03T07:39:32.569Z,1013.25
2018-09-03T07:40:32.449Z,1013.23
2018-09-03T07:42:25.134Z,1013.24
2018-09-03T07:43:25.024Z,1013.19
2018-09-03T07:45:17.694Z,1013.17
2018-09-03T07:46:17.593Z,1013.22
2018-09-03T07:48:10.288Z,1013.17
2018-09-03T07:49:10.176Z,1013.20
2018-09-03T07:51:02.908Z,1013.17
2018-09-03T07:52:02.750Z,1013.13
2018-09-03T07:53:55.441Z,1013.09
2018-09-03T07:54:55.324Z,1013.10
2018-09-03T07:56:47.999Z,1013.07
2018-09-03T07:57:47.901Z,1013.05
2018-09-03T07:59:40.594Z,1013.00
2018-09-03T08:00:40.471Z,1013.03
2018-09-03T08:02:33.155Z,1013.02
2018-09-03T08:03:33.056Z,1012.98
2018-09-03T08:05:25.748Z,1012.92
2018-09-03T08:06:25.626Z,1012.93
2018-09-03T08:08:18.312Z,1012.97
2018-09-03T08:09:18.205Z,1012.97
2018-09-03T08:11:10.904Z,1013.01
2018-09-03T08:12:10.778Z,1012.94
2018-09-03T08:14:03.491Z,1012.97
2018-09-03T08:15:03.358Z,1012.90
2018-09-03T08:16:56.045Z,1012.93
2018-09-03T08:17:55.938Z,1012.96
2018-09-03T08:19:48.638Z,1012.94
2018-09-03T08:20:48.516Z,1012.93
2018-09-03T08:22:41.200Z,1012.93
2018-09-03T08:23:41.095Z,1012.92
2018-09-03T08:25:33.791Z,1012.93
2018-09-03T08:26:33.670Z,1012.95
2018-09-03T08:28:26.359Z,1012.95
2018-09-03T08:29:26.252Z,1012.94
2018-09-03T08:31:18.956Z,1013.03
2018-09-03T08:32:18.835Z,1012.96
2018-09-03T08:34:11.518Z,1012.95
2018-09-03T08:35:11.424Z,1012.90
2018-09-03T08:37:04.123Z,1012.92
2018-09-03T08:38:04.004Z,1013.00
2018-09-03T08:39:56.725Z,1012.94
2018-09-03T08:40:56.589Z,1012.88
2018-09-03T08:42:49.292Z,1012.84
2018-09-03T08:43:49.178Z,1012.89
2018-09-03T08:45:41.865Z,1012.91
2018-09-03T08:46:41.764Z,1012.91
2018-09-03T08:48:34.476Z,1012.92
2018-09-03T08:49:34.349Z,1012.92
2018-09-03T08:51:27.051Z,1012.89
2018-09-03T08:52:26.937Z,1012.88
2018-09-03T08:54:19.623Z,1012.86
2018-09-03T08:55:19.524Z,1012.88
2018-09-03T08:57:12.227Z,1012.91
2018-09-03T08:58:12.114Z,1012.95
2018-09-03T09:00:04.796Z,1012.97
2018-09-03T09:01:04.690Z,1012.95
2018-09-03T09:02:57.398Z,1012.98
2018-09-03T09:03:57.282Z,1012.88
2018-09-03T09:05:50.005Z,1012.88
2018-09-03T09:06:49.871Z,1012.91
2018-09-03T09:08:42.569Z,1012.85
2018-09-03T09:09:42.453Z,1012.86
2018-09-03T09:11:35.175Z,1012.80
2018-09-03T09:12:35.042Z,1012.82
2018-09-03T09:14:27.734Z,1012.82
2018-09-03T09:15:27.630Z,1012.82
2018-09-03T09:17:20.330Z,1012.75
2018-09-03T09:18:20.218Z,1012.76
2018-09-03T09:20:12.898Z,1012.75
2018-09-03T09:21:12.907Z,1012.75
2018-09-03T09:23:05.508Z,1012.77
2018-09-03T09:24:05.392Z,1012.82
2018-09-03T09:25:58.085Z,1012.79
2018-09-03T09:26:57.977Z,1012.78
2018-09-03T09:28:50.681Z,1012.81
2018-09-03T09:29:50.564Z,1012.79
2018-09-03T09:31:43.255Z,1012.80
2018-09-03T09:32:43.151Z,1012.78
2018-09-03T09:34:35.856Z,1012.73
2018-09-03T09:35:35.737Z,1012.77
2018-09-03T09:37:28.429Z,1012.80
2018-09-03T09:38:28.321Z,1012.75
2018-09-03T09:40:21.024Z,1012.74
2018-09-03T09:41:20.921Z,1012.76
2018-09-03T09:43:13.648Z,1012.64
2018-09-03T09:44:13.494Z,1012.64
2018-09-03T09:46:06.176Z,1012.58
2018-09-03T09:47:06.079Z,1012.60
2018-09-03T09:48:58.775Z,1012.56
2018-09-03T09:49:58.655Z,1012.57
2018-09-03T09:51:51.342Z,1012.53
2018-09-03T09:52:51.245Z,1012.57
2018-09-03T09:54:43.950Z,1012.52
2018-09-03T09:55:43.833Z,1012.59
2018-09-03T09:57:36.513Z,1012.58
2018-09-03T09:58:36.413Z,1012.61
2018-09-03T10:00:29.112Z,1012.53
2018-09-03T10:01:28.999Z,1012.52
2018-09-03T10:03:21.683Z,1012.49
2018-09-03T10:04:21.592Z,1012.51
2018-09-03T10:06:14.283Z,1012.49
2018-09-03T10:07:14.170Z,1012.45
2018-09-03T10:09:06.860Z,1012.45
2018-09-03T10:10:06.752Z,1012.44
2018-09-03T10:11:59.454Z,1012.39
2018-09-03T10:12:59.340Z,1012.32
2018-09-03T10:14:52.054Z,1012.25
2018-09-03T10:15:51.926Z,1012.30
2018-09-03T10:17:44.611Z,1012.25
2018-09-03T10:18:44.514Z,1012.27
2018-09-03T10:20:37.215Z,1012.20
2018-09-03T10:21:37.099Z,1012.18
2018-09-03T10:23:29.802Z,1012.14
2018-09-03T10:24:29.689Z,1012.13
2018-09-03T10:26:22.438Z,1012.05
2018-09-03T10:27:22.273Z,1012.15
2018-09-03T10:29:14.970Z,1012.10
2018-09-03T10:30:14.867Z,1012.14
2018-09-03T10:32:07.577Z,1012.12
2018-09-03T10:33:07.457Z,1012.11
2018-09-03T10:35:00.171Z,1012.16
2018-09-03T10:36:00.053Z,1012.13
2018-09-03T10:37:52.746Z,1012.10
2018-09-03T10:38:52.638Z,1012.10
2018-09-03T10:40:45.348Z,1012.10
2018-09-03T10:41:45.234Z,1012.06
2018-09-03T10:43:37.921Z,1012.06
2018-09-03T10:44:37.823Z,1012.07
2018-09-03T10:46:30.526Z,1012.00
2018-09-03T10:47:30.463Z,1012.01
2018-09-03T10:49:23.109Z,1011.97
2018-09-03T10:50:23.016Z,1011.94
2018-09-03T10:52:15.713Z,1012.00
2018-09-03T10:53:15.597Z,1012.00
2018-09-03T10:55:08.283Z,1011.93
2018-09-03T10:56:08.195Z,1011.93
2018-09-03T10:58:00.894Z,1011.95
2018-09-03T10:59:00.775Z,1011.94
2018-09-03T11:00:53.498Z,1012.00
2018-09-03T11:01:53.372Z,1011.97
2018-09-03T11:03:46.062Z,1011.93
2018-09-03T11:04:45.961Z,1011.94
2018-09-03T11:06:38.665Z,1011.90
2018-09-03T11:07:38.550Z,1011.91
2018-09-03T11:09:31.232Z,1011.88
2018-09-03T11:10:31.137Z,1011.89
2018-09-03T11:12:23.849Z,1011.93
2018-09-03T11:13:23.726Z,1011.91
2018-09-03T11:15:16.407Z,1011.90
2018-09-03T11:16:16.313Z,1011.93
2018-09-03T11:18:09.015Z,1011.89
2018-09-03T11:19:08.897Z,1011.89
2018-09-03T11:21:01.590Z,1011.87
2018-09-03T11:22:01.488Z,1011.87
2018-09-03T11:23:54.194Z,1011.86
2018-09-03T11:24:54.076Z,1011.86
2018-09-03T11:26:46.766Z,1011.89
2018-09-03T11:27:46.671Z,1011.83
2018-09-03T11:29:39.881Z,1011.80
2018-09-03T11:30:39.768Z,1011.76
2018-09-03T11:32:32.485Z,1011.74
2018-09-03T11:33:32.354Z,1011.74
2018-09-03T11:35:25.051Z,1011.77
2018-09-03T11:36:24.951Z,1011.81
2018-09-03T11:38:17.661Z,1011.81
2018-09-03T11:39:17.539Z,1011.80
2018-09-03T11:41:10.234Z,1011.79
2018-09-03T11:42:10.135Z,1011.78
2018-09-03T11:44:02.842Z,1011.80
2018-09-03T11:45:02.719Z,1011.81
2018-09-03T11:46:55.901Z,1011.72
2018-09-03T11:47:55.804Z,1011.74
2018-09-03T11:49:48.514Z,1011.76
2018-09-03T11:50:48.399Z,1011.78
2018-09-03T11:52:41.093Z,1011.81
2018-09-03T11:53:40.991Z,1011.78
2018-09-03T11:55:33.705Z,1011.75
2018-09-03T11:56:33.595Z,1011.70
2018-09-03T11:58:26.285Z,1011.74
2018-09-03T11:59:26.185Z,1011.70
2018-09-03T12:01:18.895Z,1011.73
2018-09-03T12:02:18.782Z,1011.75
2018-09-03T12:04:11.498Z,1011.68
2018-09-03T12:05:11.369Z,1011.66
2018-09-03T12:07:04.061Z,1011.64
2018-09-03T12:08:03.962Z,1011.56
2018-09-03T12:09:56.685Z,1011.52
2018-09-03T12:10:56.570Z,1011.48
2018-09-03T12:12:49.260Z,1011.49
2018-09-03T12:13:49.213Z,1011.42
2018-09-03T12:15:41.870Z,1011.37
2018-09-03T12:16:41.756Z,1011.33
2018-09-03T12:18:34.449Z,1011.28
2018-09-03T12:19:34.345Z,1011.27
2018-09-03T12:21:27.057Z,1011.26
2018-09-03T12:22:26.941Z,1011.28
2018-09-03T12:24:19.631Z,1011.31
2018-09-03T12:25:19.529Z,1011.35
2018-09-03T12:27:12.238Z,1011.35
2018-09-03T12:28:12.352Z,1011.37
2018-09-03T12:30:04.814Z,1011.40
2018-09-03T12:31:04.716Z,1011.39
2018-09-03T12:32:57.423Z,1011.39
2018-09-03T12:33:57.309Z,1011.40
2018-09-03T12:35:50.016Z,1011.34
2018-09-03T12:36:49.952Z,1011.35
2018-09-03T12:38:42.584Z,1011.33
2018-09-03T12:39:42.486Z,1011.27
2018-09-03T12:41:35.194Z,1011.28
2018-09-03T12:42:35.082Z,1011.24
2018-09-03T12:44:27.772Z,1011.27
2018-09-03T12:45:27.676Z,1011.26
2018-09-03T12:47:20.378Z,1011.25
2018-09-03T12:48:20.263Z,1011.26
2018-09-03T12:50:13.036Z,1011.23
2018-09-03T12:51:12.904Z,1011.22
2018-09-03T12:53:05.594Z,1011.24
2018-09-03T12:54:05.451Z,1011.22
2018-09-03T12:55:58.220Z,1011.21
2018-09-03T12:56:58.044Z,1011.19
2018-09-03T12:58:50.786Z,1011.20
2018-09-03T12:59:50.638Z,1011.20
2018-09-03T13:01:43.347Z,1011.17
2018-09-03T13:02:43.267Z,1011.16
2018-09-03T13:04:36.189Z,1011.18
2018-09-03T13:05:35.812Z,1011.18
2018-09-03T13:07:28.522Z,1011.20
2018-09-03T13:08:28.406Z,1011.20
2018-09-03T13:10:21.105Z,1011.20
2018-09-03T13:11:21.002Z,1011.19
2018-09-03T13:13:13.709Z,1011.21
2018-09-03T13:14:13.594Z,1011.16
2018-09-03T13:16:06.281Z,1011.19
2018-09-03T13:17:06.211Z,1011.22
2018-09-03T13:18:58.972Z,1011.21
2018-09-03T13:19:58.774Z,1011.19
2018-09-03T13:21:51.471Z,1011.20
2018-09-03T13:22:51.360Z,1011.20
2018-09-03T13:24:44.106Z,1011.17
2018-09-03T13:25:43.944Z,1011.18
2018-09-03T13:27:36.644Z,1011.22
2018-09-03T13:28:36.531Z,1011.21
2018-09-03T13:30:29.223Z,1011.23
2018-09-03T13:31:29.124Z,1011.22
2018-09-03T13:33:21.828Z,1011.23
2018-09-03T13:34:21.711Z,1011.26
2018-09-03T13:36:14.768Z,1011.24
2018-09-03T13:37:14.329Z,1011.25
2018-09-03T13:39:07.065Z,1011.28
2018-09-03T13:40:06.955Z,1011.27
2018-09-03T13:41:59.654Z,1011.25
2018-09-03T13:42:59.555Z,1011.21
2018-09-03T13:44:52.305Z,1011.30
2018-09-03T13:45:52.138Z,1011.28
2018-09-03T13:47:44.843Z,1011.28
2018-09-03T13:48:44.725Z,1011.28
2018-09-03T13:50:37.419Z,1011.26
2018-09-03T13:51:37.317Z,1011.27
2018-09-03T13:53:30.019Z,1011.26
2018-09-03T13:54:29.910Z,1011.29
2018-09-03T13:56:22.645Z,1011.30
2018-09-03T13:57:22.492Z,1011.28
2018-09-03T13:59:15.197Z,1011.27
2018-09-03T14:00:15.087Z,1011.31
2018-09-03T14:02:07.767Z,1011.30
2018-09-03T14:03:07.671Z,1011.28
2018-09-03T14:05:00.408Z,1011.30
2018-09-03T14:06:00.255Z,1011.31
2018-09-03T14:07:52.953Z,1011.26
2018-09-03T14:08:52.852Z,1011.34
2018-09-03T14:10:45.554Z,1011.35
2018-09-03T14:11:45.441Z,1011.38
2018-09-03T14:13:38.128Z,1011.35
2018-09-03T14:14:38.037Z,1011.35
2018-09-03T14:16:30.744Z,1011.32
2018-09-03T14:17:30.628Z,1011.30
2018-09-03T14:19:23.313Z,1011.32
2018-09-03T14:20:23.212Z,1011.28
2018-09-03T14:22:15.927Z,1011.25
2018-09-03T14:23:15.804Z,1011.23
2018-09-03T14:25:08.494Z,1011.24
2018-09-03T14:26:08.398Z,1011.17
2018-09-03T14:28:01.101Z,1011.15
2018-09-03T14:29:00.989Z,1011.19
2018-09-03T14:30:53.697Z,1011.19
2018-09-03T14:31:53.580Z,1011.20
2018-09-03T14:33:46.270Z,1011.20
2018-09-03T14:34:46.170Z,1011.21
2018-09-03T14:36:38.878Z,1011.20
2018-09-03T14:37:38.761Z,1011.19
2018-09-03T14:39:31.456Z,1011.18
2018-09-03T14:40:31.354Z,1011.17
2018-09-03T14:42:24.057Z,1011.17
2018-09-03T14:43:23.949Z,1011.16
2018-09-03T14:45:16.668Z,1011.19
2018-09-03T14:46:16.538Z,1011.18
2018-09-03T14:48:09.290Z,1011.16
2018-09-03T14:49:09.122Z,1011.20
2018-09-03T14:51:01.812Z,1011.19
2018-09-03T14:52:01.712Z,1011.19
2018-09-03T14:53:54.412Z,1011.19
2018-09-03T14:54:54.300Z,1011.18
2018-09-03T14:56:46.990Z,1011.15
2018-09-03T14:57:46.893Z,1011.19
2018-09-03T14:59:39.593Z,1011.15
2018-09-03T15:00:39.481Z,1011.15
2018-09-03T15:02:32.165Z,1011.16
2018-09-03T15:03:32.069Z,1011.24
2018-09-03T15:05:24.768Z,1011.20
2018-09-03T15:06:24.653Z,1011.26
2018-09-03T15:08:17.435Z,1011.21
2018-09-03T15:09:17.312Z,1011.22
2018-09-03T15:11:10.019Z,1011.23
2018-09-03T15:12:09.901Z,1011.19
2018-09-03T15:14:02.592Z,1011.21
2018-09-03T15:15:02.561Z,1011.20
2018-09-03T15:16:55.195Z,1011.22
2018-09-03T15:17:55.088Z,1011.20
2018-09-03T15:19:48.767Z,1011.22
2018-09-03T15:20:48.671Z,1011.18
2018-09-03T15:22:41.369Z,1011.20
2018-09-03T15:23:41.250Z,1011.18
2018-09-03T15:25:34.431Z,1011.19
2018-09-03T15:26:34.344Z,1011.17
2018-09-03T15:28:27.036Z,1011.19
2018-09-03T15:29:26.923Z,1011.21
2018-09-03T15:31:19.640Z,1011.20
2018-09-03T15:32:19.532Z,1011.21
2018-09-03T15:34:12.206Z,1011.16
2018-09-03T15:35:12.113Z,1011.16
2018-09-03T15:37:04.809Z,1011.18
2018-09-03T15:38:04.690Z,1011.18
2018-09-03T15:39:57.381Z,1011.22
2018-09-03T15:40:57.280Z,1011.20
2018-09-03T15:42:50.020Z,1011.18
2018-09-03T15:43:49.864Z,1011.20
2018-09-03T15:45:42.548Z,1011.21
2018-09-03T15:46:42.451Z,1011.23
2018-09-03T15:48:35.169Z,1011.24
2018-09-03T15:49:35.041Z,1011.20
2018-09-03T15:51:27.732Z,1011.20
2018-09-03T15:52:27.633Z,1011.18
2018-09-03T15:54:20.333Z,1011.12
2018-09-03T15:55:20.227Z,1011.15
2018-09-03T15:57:13.556Z,1011.14
2018-09-03T15:58:12.825Z,1011.16
2018-09-03T16:00:05.534Z,1011.15
2018-09-03T16:01:05.417Z,1011.16
2018-09-03T16:02:58.184Z,1011.15
2018-09-03T16:03:58.004Z,1011.12
2018-09-03T16:05:50.688Z,1011.12
2018-09-03T16:06:50.591Z,1011.10
2018-09-03T16:08:43.295Z,1011.12
2018-09-03T16:09:43.186Z,1011.12
2018-09-03T16:11:35.868Z,1011.09
2018-09-03T16:12:35.770Z,1011.12
2018-09-03T16:14:28.468Z,1011.09
2018-09-03T16:15:28.351Z,1011.06
2018-09-03T16:17:21.040Z,1011.13
2018-09-03T16:18:20.941Z,1011.17
2018-09-03T16:20:13.650Z,1011.13
2018-09-03T16:21:13.529Z,1011.09
2018-09-03T16:23:06.225Z,1011.11
2018-09-03T16:24:06.115Z,1011.11
2018-09-03T16:25:58.821Z,1011.07
2018-09-03T16:26:58.709Z,1011.10
2018-09-03T16:28:51.398Z,1011.14
2018-09-03T16:29:51.297Z,1011.10
2018-09-03T16:31:43.999Z,1011.09
2018-09-03T16:32:43.886Z,1011.04
2018-09-03T16:34:36.590Z,1011.03
2018-09-03T16:35:36.476Z,1011.04
2018-09-03T16:37:29.161Z,1011.02
2018-09-03T16:38:29.063Z,1011.03
2018-09-03T16:40:21.767Z,1011.02
2018-09-03T16:41:21.647Z,1011.01
2018-09-03T16:43:14.344Z,1011.02
2018-09-03T16:44:14.235Z,1010.99
2018-09-03T16:46:06.944Z,1010.99
2018-09-03T16:47:06.830Z,1011.00
2018-09-03T16:48:59.526Z,1010.98
2018-09-03T16:49:59.413Z,1010.96
2018-09-03T16:51:52.116Z,1010.99
2018-09-03T16:52:52.005Z,1010.99
2018-09-03T16:54:44.702Z,1011.05
2018-09-03T16:55:44.590Z,1011.02
2018-09-03T16:57:37.291Z,1011.03
2018-09-03T16:58:37.171Z,1010.98
2018-09-03T17:00:29.876Z,1011.01
2018-09-03T17:01:30.027Z,1011.01
2018-09-03T17:03:22.452Z,1011.00
2018-09-03T17:04:22.353Z,1010.97
2018-09-03T17:06:15.057Z,1011.02
2018-09-03T17:07:14.942Z,1010.96
2018-09-03T17:09:07.620Z,1010.97
2018-09-03T17:10:07.520Z,1010.99
2018-09-03T17:12:00.225Z,1010.93
2018-09-03T17:13:00.131Z,1010.94
2018-09-03T17:14:52.801Z,1010.92
2018-09-03T17:15:52.694Z,1010.93
2018-09-03T17:17:45.410Z,1010.94
2018-09-03T17:18:45.290Z,1010.89
2018-09-03T17:20:37.990Z,1010.88
2018-09-03T17:21:37.877Z,1010.86
2018-09-03T17:23:30.565Z,1010.89
2018-09-03T17:24:30.459Z,1010.93
2018-09-03T17:26:23.156Z,1010.91
2018-09-03T17:27:23.042Z,1010.94
2018-09-03T17:29:15.731Z,1010.95
2018-09-03T17:30:15.618Z,1010.86
2018-09-03T17:32:08.328Z,1010.93
2018-09-03T17:33:08.205Z,1010.90
2018-09-03T17:35:00.886Z,1010.90
2018-09-03T17:36:00.790Z,1010.91
2018-09-03T17:37:53.490Z,1010.90
2018-09-03T17:38:53.372Z,1010.92
2018-09-03T17:40:46.054Z,1010.90
2018-09-03T17:41:45.964Z,1010.92
2018-09-03T17:43:38.655Z,1010.92
2018-09-03T17:44:38.646Z,1010.93
2018-09-03T17:46:31.225Z,1010.93
2018-09-03T17:47:31.128Z,1010.93
2018-09-03T17:49:23.825Z,1010.94
2018-09-03T17:50:23.710Z,1010.94
2018-09-03T17:52:16.413Z,1010.97
2018-09-03T17:53:16.296Z,1010.97
2018-09-03T17:55:08.985Z,1010.96
2018-09-03T17:56:08.880Z,1010.98
2018-09-03T17:58:01.581Z,1010.99
2018-09-03T17:59:01.459Z,1011.06
2018-09-03T18:00:54.141Z,1011.05
2018-09-03T18:01:54.047Z,1011.09
2018-09-03T18:03:46.740Z,1011.10
2018-09-03T18:04:46.619Z,1011.09
2018-09-03T18:06:39.304Z,1011.07
2018-09-03T18:07:39.202Z,1011.05
2018-09-03T18:09:31.916Z,1011.05
2018-09-03T18:10:31.787Z,1011.03
2018-09-03T18:12:24.467Z,1011.05
2018-09-03T18:13:24.366Z,1011.04
2018-09-03T18:15:17.083Z,1011.05
2018-09-03T18:16:17.045Z,1011.03
2018-09-03T18:18:09.638Z,1011.01
2018-09-03T18:19:09.539Z,1011.00
2018-09-03T18:21:02.246Z,1011.04
2018-09-03T18:22:02.130Z,1010.99
2018-09-03T18:23:54.841Z,1011.01
2018-09-03T18:24:54.723Z,1010.99
2018-09-03T18:26:47.403Z,1010.99
2018-09-03T18:27:47.297Z,1010.94
2018-09-03T18:29:40.008Z,1010.96
2018-09-03T18:30:39.884Z,1010.91
2018-09-03T18:32:32.575Z,1010.90
2018-09-03T18:33:32.468Z,1010.89
2018-09-03T18:35:25.799Z,1010.88
2018-09-03T18:36:25.172Z,1010.90
2018-09-03T18:38:17.977Z,1010.90
2018-09-03T18:39:17.780Z,1010.91
2018-09-03T18:41:10.524Z,1010.94
2018-09-03T18:42:10.378Z,1010.94
2018-09-03T18:44:03.057Z,1010.93
2018-09-03T18:45:02.951Z,1010.95
2018-09-03T18:46:55.660Z,1010.97
2018-09-03T18:47:55.535Z,1010.95
2018-09-03T18:49:48.224Z,1010.99
2018-09-03T18:50:48.114Z,1010.99
2018-09-03T18:52:40.820Z,1010.98
2018-09-03T18:53:40.707Z,1010.98
2018-09-03T18:55:33.385Z,1011.01
2018-09-03T18:56:33.434Z,1010.96
2018-09-03T18:58:25.991Z,1010.94
2018-09-03T18:59:25.866Z,1010.95
2018-09-03T19:01:18.592Z,1010.95
2018-09-03T19:02:18.483Z,1010.93
2018-09-03T19:04:11.136Z,1010.89
2018-09-03T19:05:11.034Z,1010.92
2018-09-03T19:07:03.742Z,1010.94
2018-09-03T19:08:03.950Z,1010.94
2018-09-03T19:09:57.571Z,1010.91
2018-09-03T19:10:57.064Z,1010.89
2018-09-03T19:13:49.839Z,1010.88
2018-09-03T19:15:42.522Z,1010.87
2018-09-03T19:16:42.424Z,1010.86
2018-09-03T19:18:35.112Z,1010.82
2018-09-03T19:19:35.022Z,1010.80
2018-09-03T19:21:27.696Z,1010.85
2018-09-03T19:22:27.581Z,1010.85
2018-09-03T19:24:20.268Z,1010.87
2018-09-03T19:25:20.170Z,1010.84
2018-09-03T19:27:13.367Z,1010.89
2018-09-03T19:28:13.247Z,1010.90
2018-09-03T19:30:05.933Z,1010.89
2018-09-03T19:31:05.820Z,1010.93
2018-09-03T19:32:58.520Z,1010.95
2018-09-03T19:33:58.404Z,1011.00
2018-09-03T19:35:51.086Z,1011.01
2018-09-03T19:36:50.979Z,1011.05
2018-09-03T19:38:43.680Z,1011.03
2018-09-03T19:39:43.565Z,1011.06
2018-09-03T19:41:36.248Z,1011.07
2018-09-03T19:42:36.152Z,1011.07
2018-09-03T19:44:28.920Z,1011.07
2018-09-03T19:45:28.919Z,1011.07
2018-09-03T19:47:21.415Z,1011.09
2018-09-03T19:48:21.317Z,1011.11
2018-09-03T19:50:14.009Z,1011.08
2018-09-03T19:51:13.894Z,1011.08
2018-09-03T19:53:06.582Z,1011.11
2018-09-03T19:54:06.479Z,1011.10
2018-09-03T19:55:59.571Z,1011.13
2018-09-03T20:02:00.552Z,1011.15
2018-09-03T20:04:52.147Z,1011.18
2018-09-03T20:05:52.036Z,1011.20
2018-09-03T20:07:44.707Z,1011.21
2018-09-03T20:08:44.606Z,1011.20
2018-09-03T20:10:37.310Z,1011.22
2018-09-03T20:11:37.187Z,1011.24
2018-09-03T20:13:29.873Z,1011.23
2018-09-03T20:14:29.766Z,1011.23
2018-09-03T20:16:22.464Z,1011.25
2018-09-03T20:17:22.348Z,1011.25
2018-09-03T20:19:15.540Z,1011.29
2018-09-03T20:20:15.436Z,1011.30
2018-09-03T20:22:08.125Z,1011.37
2018-09-03T20:23:08.057Z,1011.40
2018-09-03T20:25:00.787Z,1011.41
2018-09-03T20:26:00.601Z,1011.43
2018-09-03T20:27:53.288Z,1011.41
2018-09-03T20:28:53.182Z,1011.44
2018-09-03T20:30:45.881Z,1011.43
2018-09-03T20:31:45.766Z,1011.41
2018-09-03T20:33:38.447Z,1011.43
2018-09-03T20:34:38.349Z,1011.42
2018-09-03T20:36:31.147Z,1011.37
2018-09-03T20:37:30.931Z,1011.38
2018-09-03T20:39:23.614Z,1011.35
2018-09-03T20:40:23.513Z,1011.36
2018-09-03T20:42:16.227Z,1011.33
2018-09-03T20:43:16.105Z,1011.36
2018-09-03T20:45:08.779Z,1011.38
2018-09-03T20:46:08.682Z,1011.38
2018-09-03T20:48:01.378Z,1011.38
2018-09-03T20:49:01.263Z,1011.37
2018-09-03T20:50:53.941Z,1011.36
2018-09-03T20:51:53.838Z,1011.36
2018-09-03T20:53:46.539Z,1011.36
2018-09-03T20:54:46.425Z,1011.38
2018-09-03T20:56:39.109Z,1011.35
2018-09-03T20:57:39.000Z,1011.34
2018-09-03T20:59:31.751Z,1011.32
2018-09-03T21:00:31.593Z,1011.30
2018-09-03T21:02:24.277Z,1011.30
2018-09-03T21:03:24.166Z,1011.35
2018-09-03T21:05:16.865Z,1011.28
2018-09-03T21:06:16.746Z,1011.23
2018-09-03T21:08:09.445Z,1011.21
2018-09-03T21:09:09.330Z,1011.17
2018-09-03T21:11:02.016Z,1011.14
2018-09-03T21:12:01.910Z,1011.14
2018-09-03T21:13:54.615Z,1011.05
2018-09-03T21:14:54.496Z,1011.07
2018-09-03T21:16:47.187Z,1011.12
2018-09-03T21:17:47.081Z,1011.11
2018-09-03T21:19:39.782Z,1011.12
2018-09-03T21:20:39.661Z,1011.13
2018-09-03T21:22:32.345Z,1011.10
2018-09-03T21:23:32.248Z,1011.09
2018-09-03T21:25:24.947Z,1011.08
2018-09-03T21:26:24.827Z,1011.07
2018-09-03T21:28:17.504Z,1011.03
2018-09-03T21:29:17.402Z,1011.02
2018-09-03T21:31:10.117Z,1011.02